Akvatrans — LKLG — position and weather

sailwx.info

Track history (hours):
 
Tides and Currents Weather Stations Pressure Air Temp Water Temp Dewpoint Dewpoint Depression Visibility Wind Speed Wind Dir Waves Ship Positions

Akvatrans

Last reported at 2017-Dec-18 16:30 UTC. Time now 2017-Dec-18 16:41 UTC.
Position N 67°05' E 013°56'.

Length 44 m; draft 3 m.

Type: Ship. MMSI: 257034600.

Date/timePositionNaut miles runAvg speedWind from/ knotsBaromVisibWave heightAir tempDewpointWater temp
2017-Dec-18 16:30N 67°05' E 013°56'5 9.8
2017-Dec-18 16:00N 67°02' E 013°46'5 9.8
2017-Dec-18 15:30N 66°59' E 013°36'5 8.4
2017-Dec-18 14:58N 66°55' E 013°30'7 9.8
2017-Dec-18 14:18N 66°51' E 013°18'6 9.7
2017-Dec-18 13:44N 66°45' E 013°13'2 9.9
2017-Dec-18 13:30N 66°43' E 013°11'17 9.2
2017-Dec-18 11:38N 66°28' E 012°53'2 9.7
2017-Dec-18 11:25N 66°27' E 012°48'4 9.7
2017-Dec-18 10:59N 66°25' E 012°39'5 9.9
2017-Dec-18 10:30N 66°23' E 012°28'3 5.1
2017-Dec-18 10:00N 66°22' E 012°23'0 0.0
2017-Dec-18 09:30N 66°22' E 012°23'0 0.0
2017-Dec-18 09:00N 66°22' E 012°23'0 0.0
2017-Dec-18 08:30N 66°22' E 012°23'0 0.0
2017-Dec-18 08:00N 66°22' E 012°23'0 0.0
2017-Dec-18 07:30N 66°22' E 012°23'0 0.0
2017-Dec-18 07:00N 66°22' E 012°23'0 0.0
2017-Dec-18 06:30N 66°22' E 012°23'0 0.0
2017-Dec-18 06:00N 66°22' E 012°23'0 0.0
2017-Dec-18 05:30N 66°22' E 012°23'0 0.0
2017-Dec-18 05:00N 66°22' E 012°23'0 0.0
2017-Dec-18 04:30N 66°22' E 012°23'0 0.0
2017-Dec-18 04:00N 66°22' E 012°23'0 0.0
2017-Dec-18 03:30N 66°22' E 012°23'0 0.0
2017-Dec-18 03:00N 66°22' E 012°23'0 0.0
2017-Dec-18 02:30N 66°22' E 012°23'0 0.0
2017-Dec-18 02:00N 66°22' E 012°23'0 0.0
2017-Dec-18 01:30N 66°22' E 012°23'1 1.7
2017-Dec-18 01:01N 66°22' E 012°25'4 8.1
2017-Dec-18 00:30N 66°25' E 012°32'5 9.0
2017-Dec-17 23:55N 66°27' E 012°44'18 6.9
2017-Dec-17 21:16N 66°42' E 013°09'5 9.0
2017-Dec-17 20:43N 66°47' E 013°14'2 8.7
2017-Dec-17 20:28N 66°49' E 013°15'7 8.3
2017-Dec-17 19:38N 66°54' E 013°27'1 8.7
2017-Dec-17 19:29N 66°55' E 013°29'3 6.9
2017-Dec-17 19:01N 66°58' E 013°33'4 8.8
2017-Dec-17 18:30N 67°01' E 013°42'4 9.0
2017-Dec-17 18:00N 67°03' E 013°51'5 9.0
2017-Dec-17 17:30N 67°07' E 013°59'4 8.8
2017-Dec-17 17:00N 67°11' E 014°04'5 9.6
2017-Dec-17 16:30N 67°15' E 014°10'5 9.4
2017-Dec-17 16:00N 67°19' E 014°17'5 9.2
2017-Dec-17 15:30N 67°22' E 014°24'4 8.8
2017-Dec-17 15:00N 67°26' E 014°29'5 9.2
2017-Dec-17 14:30N 67°31' E 014°29'4 8.3
2017-Dec-17 14:00N 67°35' E 014°27'5 8.9
2017-Dec-17 13:29N 67°39' E 014°20'  
2017-Dec-14 18:30N 67°06' E 013°59'5 9.8
2017-Dec-14 18:00N 67°03' E 013°50'5 9.7
2017-Dec-14 17:30N 67°00' E 013°40'5 9.4
2017-Dec-14 17:01N 66°58' E 013°30'7 9.1
2017-Dec-14 16:14N 66°52' E 013°20'2 9.5
2017-Dec-14 15:58N 66°50' E 013°16'44 4.9
2017-Dec-14 07:04N 66°12' E 012°22'1 9.8
2017-Dec-14 06:59N 66°13' E 012°22'4 9.4
2017-Dec-14 06:30N 66°17' E 012°22'4 8.9
2017-Dec-14 06:00N 66°22' E 012°24'1 1.3
2017-Dec-14 05:28N 66°22' E 012°22'0 0.0
2017-Dec-14 04:58N 66°22' E 012°22'0 0.0
2017-Dec-14 04:28N 66°22' E 012°22'0 0.0
2017-Dec-14 03:58N 66°22' E 012°22'0 0.0
2017-Dec-14 03:28N 66°22' E 012°22'0 0.0
2017-Dec-14 02:58N 66°22' E 012°22'0 0.0
2017-Dec-14 02:28N 66°22' E 012°22'0 0.0
2017-Dec-14 01:58N 66°22' E 012°22'0 0.0
2017-Dec-14 01:30N 66°22' E 012°22'0 0.0
2017-Dec-14 01:00N 66°22' E 012°22'0 0.0
2017-Dec-14 00:30N 66°22' E 012°22'0 0.0
2017-Dec-14 00:00N 66°22' E 012°22'0 0.0
2017-Dec-13 23:30N 66°22' E 012°22'0 0.0
2017-Dec-13 23:00N 66°22' E 012°22'1 1.0
2017-Dec-13 22:30N 66°22' E 012°24'4 8.6
2017-Dec-13 22:00N 66°25' E 012°32'5 9.3
2017-Dec-13 21:30N 66°26' E 012°43'6 9.1
2017-Dec-13 20:47N 66°29' E 012°58'14 8.0
2017-Dec-13 19:01N 66°42' E 013°09'1 9.1
2017-Dec-13 18:56N 66°43' E 013°10'7 8.9
2017-Dec-13 18:11N 66°49' E 013°16'8 8.8
2017-Dec-13 17:17N 66°55' E 013°29'2 8.4
2017-Dec-13 17:01N 66°57' E 013°29'4 8.5
2017-Dec-13 16:30N 66°60' E 013°38'4 8.9
2017-Dec-13 16:00N 67°02' E 013°48'4 8.8
2017-Dec-13 15:30N 67°05' E 013°56'4 8.7
2017-Dec-13 15:01N 67°09' E 014°02'4 8.6
2017-Dec-13 14:30N 67°13' E 014°07'4 8.8
2017-Dec-13 14:00N 67°16' E 014°13'4 8.9
2017-Dec-13 13:30N 67°20' E 014°20'5 9.1
2017-Dec-13 13:01N 67°24' E 014°26'5 9.1
2017-Dec-13 12:31N 67°28' E 014°28'5 9.0
2017-Dec-13 11:59N 67°33' E 014°30'5 0.4
2017-Dec-13 00:24N 67°38' E 014°31'4 9.7
2017-Dec-13 00:01N 67°34' E 014°31'5 9.8
2017-Dec-12 23:31N 67°29' E 014°29'5 9.5
2017-Dec-12 23:00N 67°25' E 014°27'5 9.6
2017-Dec-12 22:30N 67°20' E 014°21'5 9.9
2017-Dec-12 22:00N 67°16' E 014°14'5 9.9
2017-Dec-12 21:31N 67°12' E 014°07'510.2
2017-Dec-12 21:00N 67°08' E 014°01'5 9.9
2017-Dec-12 20:30N 67°04' E 013°53'5 9.7
2017-Dec-12 20:00N 67°01' E 013°43'5 9.8
2017-Dec-12 19:30N 66°58' E 013°33'4 8.4
2017-Dec-12 19:00N 66°54' E 013°28'5 9.8
2017-Dec-12 18:29N 66°51' E 013°18'8 9.7
2017-Dec-12 17:42N 66°44' E 013°11'18 8.7
2017-Dec-12 15:40N 66°28' E 012°52'210.0
2017-Dec-12 15:27N 66°27' E 012°47'4 9.8
2017-Dec-12 15:00N 66°25' E 012°37'5 9.5
2017-Dec-12 14:29N 66°23' E 012°27'2 3.7
2017-Dec-12 14:00N 66°22' E 012°23'0 0.0
2017-Dec-12 13:30N 66°22' E 012°23'0 0.0
2017-Dec-12 13:00N 66°22' E 012°23'0 0.0
2017-Dec-12 12:30N 66°22' E 012°23'0 0.0
2017-Dec-12 12:00N 66°22' E 012°23'0 0.0
2017-Dec-12 11:30N 66°22' E 012°23'0 0.0
2017-Dec-12 11:00N 66°22' E 012°23'0 0.0
2017-Dec-12 10:30N 66°22' E 012°23'0 0.0
2017-Dec-12 10:00N 66°22' E 012°23'0 0.0
2017-Dec-12 09:30N 66°22' E 012°23'0 0.0
2017-Dec-12 09:00N 66°22' E 012°23'0 0.0
2017-Dec-12 08:30N 66°22' E 012°23'0 0.0
2017-Dec-12 08:00N 66°22' E 012°23'0 0.0
2017-Dec-12 07:30N 66°22' E 012°23'0 0.0
2017-Dec-12 07:00N 66°22' E 012°23'0 0.0
2017-Dec-12 06:29N 66°22' E 012°23'3 5.5
2017-Dec-12 05:59N 66°24' E 012°28'4 8.7
2017-Dec-12 05:30N 66°26' E 012°37'22 7.6
2017-Dec-12 02:39N 66°43' E 013°10'2 9.0
2017-Dec-12 02:26N 66°45' E 013°12'5 8.9
2017-Dec-12 01:52N 66°49' E 013°16'7 8.9
2017-Dec-12 01:08N 66°54' E 013°27'1 9.0
2017-Dec-12 01:00N 66°55' E 013°29'4 7.7
2017-Dec-12 00:31N 66°58' E 013°34'5 9.1
2017-Dec-12 00:00N 67°01' E 013°43'5 9.2
2017-Dec-11 23:30N 67°04' E 013°53'4 9.0
2017-Dec-11 23:00N 67°07' E 014°00'4 8.7
2017-Dec-11 22:31N 67°11' E 014°05'5 9.1
2017-Dec-11 22:01N 67°15' E 014°11'5 9.1
2017-Dec-11 21:31N 67°19' E 014°18'5 9.3
2017-Dec-11 21:01N 67°23' E 014°24'4 9.0
2017-Dec-11 20:30N 67°27' E 014°28'4 8.6
2017-Dec-11 20:00N 67°31' E 014°29'5 0.3
2017-Dec-11 00:18N 67°36' E 014°31'3 9.6
2017-Dec-11 00:00N 67°34' E 014°30'5 9.7
2017-Dec-10 23:30N 67°29' E 014°29'5 9.7
2017-Dec-10 23:01N 67°24' E 014°27'4 8.9
2017-Dec-10 22:30N 67°20' E 014°21'5 9.5
2017-Dec-10 22:00N 67°16' E 014°14'5 9.5
2017-Dec-10 21:30N 67°12' E 014°07'5 9.8
2017-Dec-10 21:01N 67°08' E 014°02'1 2.2
2017-Dec-10 20:31N 67°08' E 013°59'0 0.0
2017-Dec-10 20:01N 67°08' E 013°59'0 0.0
2017-Dec-10 19:31N 67°08' E 013°59'0 0.0
2017-Dec-10 19:01N 67°08' E 013°59'1 2.3
2017-Dec-10 18:31N 67°09' E 014°02'4 9.0
2017-Dec-10 18:01N 67°12' E 014°08'5 9.6
2017-Dec-10 17:30N 67°16' E 014°17'3 4.9
2017-Dec-10 16:59N 67°17' E 014°23'0 0.0
2017-Dec-10 16:29N 67°17' E 014°23'0 0.0
2017-Dec-10 15:59N 67°17' E 014°23'0 0.0
2017-Dec-10 15:29N 67°17' E 014°23'0 0.0
2017-Dec-10 14:59N 67°17' E 014°23'0 0.0
2017-Dec-10 14:29N 67°17' E 014°23'0 0.0
2017-Dec-10 13:59N 67°17' E 014°23'0 0.0
2017-Dec-10 13:29N 67°17' E 014°23'0 0.0
2017-Dec-10 12:59N 67°17' E 014°23'0 0.0
2017-Dec-10 12:29N 67°17' E 014°23'0 0.0
2017-Dec-10 11:59N 67°17' E 014°23'0 0.0
2017-Dec-10 11:29N 67°17' E 014°23'0 0.0
2017-Dec-10 10:59N 67°17' E 014°23'0 0.0
2017-Dec-10 10:29N 67°17' E 014°23'0 0.0
2017-Dec-10 09:59N 67°17' E 014°23'0 0.0
2017-Dec-10 09:29N 67°17' E 014°23'0 0.0
2017-Dec-10 08:59N 67°17' E 014°23'0 0.0
2017-Dec-10 08:29N 67°17' E 014°23'0 0.0
2017-Dec-10 07:59N 67°17' E 014°23'0 0.0
2017-Dec-10 07:29N 67°17' E 014°23'0 0.0
2017-Dec-10 06:59N 67°17' E 014°23'0 0.0
2017-Dec-10 06:30N 67°17' E 014°23'0 0.3
2017-Dec-10 06:01N 67°17' E 014°22'3 6.5
2017-Dec-10 05:30N 67°15' E 014°16'4 7.5
2017-Dec-10 05:01N 67°12' E 014°09'4 8.2
2017-Dec-10 04:31N 67°09' E 014°03'4 8.2
2017-Dec-10 04:00N 67°06' E 013°57'4 8.4
2017-Dec-10 03:30N 67°03' E 013°50'4 8.4
2017-Dec-10 03:00N 67°00' E 013°41'4 8.5
2017-Dec-10 02:30N 66°58' E 013°32'4 8.0
2017-Dec-10 02:00N 66°54' E 013°27'5 9.0
2017-Dec-10 01:26N 66°51' E 013°18'4 8.6
2017-Dec-10 01:00N 66°47' E 013°15'5 9.6
2017-Dec-10 00:30N 66°43' E 013°11'10 9.6
2017-Dec-09 23:26N 66°33' E 013°03'5 9.8
2017-Dec-09 22:58N 66°31' E 012°52'510.0
2017-Dec-09 22:30N 66°28' E 012°44'5 9.9
2017-Dec-09 22:01N 66°25' E 012°34'5 9.4
2017-Dec-09 21:31N 66°22' E 012°25'1 1.7
2017-Dec-09 21:00N 66°22' E 012°23'0 0.0
2017-Dec-09 20:30N 66°22' E 012°23'0 0.0
2017-Dec-09 20:00N 66°22' E 012°23'0 0.0
2017-Dec-09 19:30N 66°22' E 012°23'0 0.0
2017-Dec-09 19:00N 66°22' E 012°23'0 0.0
2017-Dec-09 18:30N 66°22' E 012°23'0 0.0
2017-Dec-09 18:00N 66°22' E 012°23'0 0.0
2017-Dec-09 17:30N 66°22' E 012°23'0 0.0
2017-Dec-09 17:00N 66°22' E 012°23'0 0.0
2017-Dec-09 16:30N 66°22' E 012°23'0 0.0
2017-Dec-09 16:00N 66°22' E 012°23'0 0.0
2017-Dec-09 15:30N 66°22' E 012°23'0 0.0
2017-Dec-09 15:01N 66°22' E 012°23'0 0.0
2017-Dec-09 14:30N 66°22' E 012°23'0 0.0
2017-Dec-09 14:00N 66°22' E 012°23'0 0.0
2017-Dec-09 13:30N 66°22' E 012°23'0 0.0
2017-Dec-09 13:00N 66°22' E 012°23'0 0.3
2017-Dec-09 12:30N 66°22' E 012°23'4 8.3
2017-Dec-09 12:00N 66°24' E 012°31'5 9.0
2017-Dec-09 11:30N 66°27' E 012°41'5 8.9
2017-Dec-09 11:00N 66°30' E 012°49'8 8.5
2017-Dec-09 10:04N 66°36' E 013°03'4 9.0
2017-Dec-09 09:40N 66°39' E 013°06'2 8.9
2017-Dec-09 09:29N 66°40' E 013°07'10 9.3
2017-Dec-09 08:28N 66°49' E 013°16'6 9.1
2017-Dec-09 07:46N 66°54' E 013°26'3 8.3
2017-Dec-09 07:26N 66°57' E 013°29'4 8.9
2017-Dec-09 07:00N 66°59' E 013°36'5 9.2
2017-Dec-09 06:30N 67°02' E 013°46'5 9.0
2017-Dec-09 06:00N 67°05' E 013°55'4 8.9
2017-Dec-09 05:30N 67°08' E 014°01'4 8.4
2017-Dec-09 05:01N 67°12' E 014°06'5 9.1
2017-Dec-09 04:30N 67°16' E 014°13'5 9.3
2017-Dec-09 04:01N 67°20' E 014°19'5 9.5
2017-Dec-09 03:31N 67°24' E 014°26'5 8.9
2017-Dec-09 03:00N 67°28' E 014°28'  
Track history (hours):
 
Tides and Currents Weather Stations Pressure Air Temp Water Temp Dewpoint Dewpoint Depression Visibility Wind Speed Wind Dir Waves Ship Positions

Akvatrans

Last reported at 2017-Dec-18 16:30 UTC. Time now 2017-Dec-18 16:41 UTC.
Position N 67°05' E 013°56'.

Length 44 m; draft 3 m.

Type: Ship. MMSI: 257034600.

Date/timePositionNaut miles runAvg speedWind from/ knotsBaromVisibWave heightAir tempDewpointWater temp
2017-Dec-18 16:30N 67°05' E 013°56'5 9.8
2017-Dec-18 16:00N 67°02' E 013°46'5 9.8
2017-Dec-18 15:30N 66°59' E 013°36'5 8.4
2017-Dec-18 14:58N 66°55' E 013°30'7 9.8
2017-Dec-18 14:18N 66°51' E 013°18'6 9.7
2017-Dec-18 13:44N 66°45' E 013°13'2 9.9
2017-Dec-18 13:30N 66°43' E 013°11'17 9.2
2017-Dec-18 11:38N 66°28' E 012°53'2 9.7
2017-Dec-18 11:25N 66°27' E 012°48'4 9.7
2017-Dec-18 10:59N 66°25' E 012°39'5 9.9
2017-Dec-18 10:30N 66°23' E 012°28'3 5.1
2017-Dec-18 10:00N 66°22' E 012°23'0 0.0
2017-Dec-18 09:30N 66°22' E 012°23'0 0.0
2017-Dec-18 09:00N 66°22' E 012°23'0 0.0
2017-Dec-18 08:30N 66°22' E 012°23'0 0.0
2017-Dec-18 08:00N 66°22' E 012°23'0 0.0
2017-Dec-18 07:30N 66°22' E 012°23'0 0.0
2017-Dec-18 07:00N 66°22' E 012°23'0 0.0
2017-Dec-18 06:30N 66°22' E 012°23'0 0.0
2017-Dec-18 06:00N 66°22' E 012°23'0 0.0
2017-Dec-18 05:30N 66°22' E 012°23'0 0.0
2017-Dec-18 05:00N 66°22' E 012°23'0 0.0
2017-Dec-18 04:30N 66°22' E 012°23'0 0.0
2017-Dec-18 04:00N 66°22' E 012°23'0 0.0
2017-Dec-18 03:30N 66°22' E 012°23'0 0.0
2017-Dec-18 03:00N 66°22' E 012°23'0 0.0
2017-Dec-18 02:30N 66°22' E 012°23'0 0.0
2017-Dec-18 02:00N 66°22' E 012°23'0 0.0
2017-Dec-18 01:30N 66°22' E 012°23'1 1.7
2017-Dec-18 01:01N 66°22' E 012°25'4 8.1
2017-Dec-18 00:30N 66°25' E 012°32'5 9.0
2017-Dec-17 23:55N 66°27' E 012°44'18 6.9
2017-Dec-17 21:16N 66°42' E 013°09'5 9.0
2017-Dec-17 20:43N 66°47' E 013°14'2 8.7
2017-Dec-17 20:28N 66°49' E 013°15'7 8.3
2017-Dec-17 19:38N 66°54' E 013°27'1 8.7
2017-Dec-17 19:29N 66°55' E 013°29'3 6.9
2017-Dec-17 19:01N 66°58' E 013°33'4 8.8
2017-Dec-17 18:30N 67°01' E 013°42'4 9.0
2017-Dec-17 18:00N 67°03' E 013°51'5 9.0
2017-Dec-17 17:30N 67°07' E 013°59'4 8.8
2017-Dec-17 17:00N 67°11' E 014°04'5 9.6
2017-Dec-17 16:30N 67°15' E 014°10'5 9.4
2017-Dec-17 16:00N 67°19' E 014°17'5 9.2
2017-Dec-17 15:30N 67°22' E 014°24'4 8.8
2017-Dec-17 15:00N 67°26' E 014°29'5 9.2
2017-Dec-17 14:30N 67°31' E 014°29'4 8.3
2017-Dec-17 14:00N 67°35' E 014°27'5 8.9
2017-Dec-17 13:29N 67°39' E 014°20'  
2017-Dec-14 18:30N 67°06' E 013°59'5 9.8
2017-Dec-14 18:00N 67°03' E 013°50'5 9.7
2017-Dec-14 17:30N 67°00' E 013°40'5 9.4
2017-Dec-14 17:01N 66°58' E 013°30'7 9.1
2017-Dec-14 16:14N 66°52' E 013°20'2 9.5
2017-Dec-14 15:58N 66°50' E 013°16'44 4.9
2017-Dec-14 07:04N 66°12' E 012°22'1 9.8
2017-Dec-14 06:59N 66°13' E 012°22'4 9.4
2017-Dec-14 06:30N 66°17' E 012°22'4 8.9
2017-Dec-14 06:00N 66°22' E 012°24'1 1.3
2017-Dec-14 05:28N 66°22' E 012°22'0 0.0
2017-Dec-14 04:58N 66°22' E 012°22'0 0.0
2017-Dec-14 04:28N 66°22' E 012°22'0 0.0
2017-Dec-14 03:58N 66°22' E 012°22'0 0.0
2017-Dec-14 03:28N 66°22' E 012°22'0 0.0
2017-Dec-14 02:58N 66°22' E 012°22'0 0.0
2017-Dec-14 02:28N 66°22' E 012°22'0 0.0
2017-Dec-14 01:58N 66°22' E 012°22'0 0.0
2017-Dec-14 01:30N 66°22' E 012°22'0 0.0
2017-Dec-14 01:00N 66°22' E 012°22'0 0.0
2017-Dec-14 00:30N 66°22' E 012°22'0 0.0
2017-Dec-14 00:00N 66°22' E 012°22'0 0.0
2017-Dec-13 23:30N 66°22' E 012°22'0 0.0
2017-Dec-13 23:00N 66°22' E 012°22'1 1.0
2017-Dec-13 22:30N 66°22' E 012°24'4 8.6
2017-Dec-13 22:00N 66°25' E 012°32'5 9.3
2017-Dec-13 21:30N 66°26' E 012°43'6 9.1
2017-Dec-13 20:47N 66°29' E 012°58'14 8.0
2017-Dec-13 19:01N 66°42' E 013°09'1 9.1
2017-Dec-13 18:56N 66°43' E 013°10'7 8.9
2017-Dec-13 18:11N 66°49' E 013°16'8 8.8
2017-Dec-13 17:17N 66°55' E 013°29'2 8.4
2017-Dec-13 17:01N 66°57' E 013°29'4 8.5
2017-Dec-13 16:30N 66°60' E 013°38'4 8.9
2017-Dec-13 16:00N 67°02' E 013°48'4 8.8
2017-Dec-13 15:30N 67°05' E 013°56'4 8.7
2017-Dec-13 15:01N 67°09' E 014°02'4 8.6
2017-Dec-13 14:30N 67°13' E 014°07'4 8.8
2017-Dec-13 14:00N 67°16' E 014°13'4 8.9
2017-Dec-13 13:30N 67°20' E 014°20'5 9.1
2017-Dec-13 13:01N 67°24' E 014°26'5 9.1
2017-Dec-13 12:31N 67°28' E 014°28'5 9.0
2017-Dec-13 11:59N 67°33' E 014°30'5 0.4
2017-Dec-13 00:24N 67°38' E 014°31'4 9.7
2017-Dec-13 00:01N 67°34' E 014°31'5 9.8
2017-Dec-12 23:31N 67°29' E 014°29'5 9.5
2017-Dec-12 23:00N 67°25' E 014°27'5 9.6
2017-Dec-12 22:30N 67°20' E 014°21'5 9.9
2017-Dec-12 22:00N 67°16' E 014°14'5 9.9
2017-Dec-12 21:31N 67°12' E 014°07'510.2
2017-Dec-12 21:00N 67°08' E 014°01'5 9.9
2017-Dec-12 20:30N 67°04' E 013°53'5 9.7
2017-Dec-12 20:00N 67°01' E 013°43'5 9.8
2017-Dec-12 19:30N 66°58' E 013°33'4 8.4
2017-Dec-12 19:00N 66°54' E 013°28'5 9.8
2017-Dec-12 18:29N 66°51' E 013°18'8 9.7
2017-Dec-12 17:42N 66°44' E 013°11'18 8.7
2017-Dec-12 15:40N 66°28' E 012°52'210.0
2017-Dec-12 15:27N 66°27' E 012°47'4 9.8
2017-Dec-12 15:00N 66°25' E 012°37'5 9.5
2017-Dec-12 14:29N 66°23' E 012°27'2 3.7
2017-Dec-12 14:00N 66°22' E 012°23'0 0.0
2017-Dec-12 13:30N 66°22' E 012°23'0 0.0
2017-Dec-12 13:00N 66°22' E 012°23'0 0.0
2017-Dec-12 12:30N 66°22' E 012°23'0 0.0
2017-Dec-12 12:00N 66°22' E 012°23'0 0.0
2017-Dec-12 11:30N 66°22' E 012°23'0 0.0
2017-Dec-12 11:00N 66°22' E 012°23'0 0.0
2017-Dec-12 10:30N 66°22' E 012°23'0 0.0
2017-Dec-12 10:00N 66°22' E 012°23'0 0.0
2017-Dec-12 09:30N 66°22' E 012°23'0 0.0
2017-Dec-12 09:00N 66°22' E 012°23'0 0.0
2017-Dec-12 08:30N 66°22' E 012°23'0 0.0
2017-Dec-12 08:00N 66°22' E 012°23'0 0.0
2017-Dec-12 07:30N 66°22' E 012°23'0 0.0
2017-Dec-12 07:00N 66°22' E 012°23'0 0.0
2017-Dec-12 06:29N 66°22' E 012°23'3 5.5
2017-Dec-12 05:59N 66°24' E 012°28'4 8.7
2017-Dec-12 05:30N 66°26' E 012°37'22 7.6
2017-Dec-12 02:39N 66°43' E 013°10'2 9.0
2017-Dec-12 02:26N 66°45' E 013°12'5 8.9
2017-Dec-12 01:52N 66°49' E 013°16'7 8.9
2017-Dec-12 01:08N 66°54' E 013°27'1 9.0
2017-Dec-12 01:00N 66°55' E 013°29'4 7.7
2017-Dec-12 00:31N 66°58' E 013°34'5 9.1
2017-Dec-12 00:00N 67°01' E 013°43'5 9.2
2017-Dec-11 23:30N 67°04' E 013°53'4 9.0
2017-Dec-11 23:00N 67°07' E 014°00'4 8.7
2017-Dec-11 22:31N 67°11' E 014°05'5 9.1
2017-Dec-11 22:01N 67°15' E 014°11'5 9.1
2017-Dec-11 21:31N 67°19' E 014°18'5 9.3
2017-Dec-11 21:01N 67°23' E 014°24'4 9.0
2017-Dec-11 20:30N 67°27' E 014°28'4 8.6
2017-Dec-11 20:00N 67°31' E 014°29'5 0.3
2017-Dec-11 00:18N 67°36' E 014°31'3 9.6
2017-Dec-11 00:00N 67°34' E 014°30'5 9.7
2017-Dec-10 23:30N 67°29' E 014°29'5 9.7
2017-Dec-10 23:01N 67°24' E 014°27'4 8.9
2017-Dec-10 22:30N 67°20' E 014°21'5 9.5
2017-Dec-10 22:00N 67°16' E 014°14'5 9.5
2017-Dec-10 21:30N 67°12' E 014°07'5 9.8
2017-Dec-10 21:01N 67°08' E 014°02'1 2.2
2017-Dec-10 20:31N 67°08' E 013°59'0 0.0
2017-Dec-10 20:01N 67°08' E 013°59'0 0.0
2017-Dec-10 19:31N 67°08' E 013°59'0 0.0
2017-Dec-10 19:01N 67°08' E 013°59'1 2.3
2017-Dec-10 18:31N 67°09' E 014°02'4 9.0
2017-Dec-10 18:01N 67°12' E 014°08'5 9.6
2017-Dec-10 17:30N 67°16' E 014°17'3 4.9
2017-Dec-10 16:59N 67°17' E 014°23'0 0.0
2017-Dec-10 16:29N 67°17' E 014°23'0 0.0
2017-Dec-10 15:59N 67°17' E 014°23'0 0.0
2017-Dec-10 15:29N 67°17' E 014°23'0 0.0
2017-Dec-10 14:59N 67°17' E 014°23'0 0.0
2017-Dec-10 14:29N 67°17' E 014°23'0 0.0
2017-Dec-10 13:59N 67°17' E 014°23'0 0.0
2017-Dec-10 13:29N 67°17' E 014°23'0 0.0
2017-Dec-10 12:59N 67°17' E 014°23'0 0.0
2017-Dec-10 12:29N 67°17' E 014°23'0 0.0
2017-Dec-10 11:59N 67°17' E 014°23'0 0.0
2017-Dec-10 11:29N 67°17' E 014°23'0 0.0
2017-Dec-10 10:59N 67°17' E 014°23'0 0.0
2017-Dec-10 10:29N 67°17' E 014°23'0 0.0
2017-Dec-10 09:59N 67°17' E 014°23'0 0.0
2017-Dec-10 09:29N 67°17' E 014°23'0 0.0
2017-Dec-10 08:59N 67°17' E 014°23'0 0.0
2017-Dec-10 08:29N 67°17' E 014°23'0 0.0
2017-Dec-10 07:59N 67°17' E 014°23'0 0.0
2017-Dec-10 07:29N 67°17' E 014°23'0 0.0
2017-Dec-10 06:59N 67°17' E 014°23'0 0.0
2017-Dec-10 06:30N 67°17' E 014°23'0 0.3
2017-Dec-10 06:01N 67°17' E 014°22'3 6.5
2017-Dec-10 05:30N 67°15' E 014°16'4 7.5
2017-Dec-10 05:01N 67°12' E 014°09'4 8.2
2017-Dec-10 04:31N 67°09' E 014°03'4 8.2
2017-Dec-10 04:00N 67°06' E 013°57'4 8.4
2017-Dec-10 03:30N 67°03' E 013°50'4 8.4
2017-Dec-10 03:00N 67°00' E 013°41'4 8.5
2017-Dec-10 02:30N 66°58' E 013°32'4 8.0
2017-Dec-10 02:00N 66°54' E 013°27'5 9.0
2017-Dec-10 01:26N 66°51' E 013°18'4 8.6
2017-Dec-10 01:00N 66°47' E 013°15'5 9.6
2017-Dec-10 00:30N 66°43' E 013°11'10 9.6
2017-Dec-09 23:26N 66°33' E 013°03'5 9.8
2017-Dec-09 22:58N 66°31' E 012°52'510.0
2017-Dec-09 22:30N 66°28' E 012°44'5 9.9
2017-Dec-09 22:01N 66°25' E 012°34'5 9.4
2017-Dec-09 21:31N 66°22' E 012°25'1 1.7
2017-Dec-09 21:00N 66°22' E 012°23'0 0.0
2017-Dec-09 20:30N 66°22' E 012°23'0 0.0
2017-Dec-09 20:00N 66°22' E 012°23'0 0.0
2017-Dec-09 19:30N 66°22' E 012°23'0 0.0
2017-Dec-09 19:00N 66°22' E 012°23'0 0.0
2017-Dec-09 18:30N 66°22' E 012°23'0 0.0
2017-Dec-09 18:00N 66°22' E 012°23'0 0.0
2017-Dec-09 17:30N 66°22' E 012°23'0 0.0
2017-Dec-09 17:00N 66°22' E 012°23'0 0.0
2017-Dec-09 16:30N 66°22' E 012°23'0 0.0
2017-Dec-09 16:00N 66°22' E 012°23'0 0.0
2017-Dec-09 15:30N 66°22' E 012°23'0 0.0
2017-Dec-09 15:01N 66°22' E 012°23'0 0.0
2017-Dec-09 14:30N 66°22' E 012°23'0 0.0
2017-Dec-09 14:00N 66°22' E 012°23'0 0.0
2017-Dec-09 13:30N 66°22' E 012°23'0 0.0
2017-Dec-09 13:00N 66°22' E 012°23'0 0.3
2017-Dec-09 12:30N 66°22' E 012°23'4 8.3
2017-Dec-09 12:00N 66°24' E 012°31'5 9.0
2017-Dec-09 11:30N 66°27' E 012°41'5 8.9
2017-Dec-09 11:00N 66°30' E 012°49'8 8.5
2017-Dec-09 10:04N 66°36' E 013°03'4 9.0
2017-Dec-09 09:40N 66°39' E 013°06'2 8.9
2017-Dec-09 09:29N 66°40' E 013°07'10 9.3
2017-Dec-09 08:28N 66°49' E 013°16'6 9.1
2017-Dec-09 07:46N 66°54' E 013°26'3 8.3
2017-Dec-09 07:26N 66°57' E 013°29'4 8.9
2017-Dec-09 07:00N 66°59' E 013°36'5 9.2
2017-Dec-09 06:30N 67°02' E 013°46'5 9.0
2017-Dec-09 06:00N 67°05' E 013°55'4 8.9
2017-Dec-09 05:30N 67°08' E 014°01'4 8.4
2017-Dec-09 05:01N 67°12' E 014°06'5 9.1
2017-Dec-09 04:30N 67°16' E 014°13'5 9.3
2017-Dec-09 04:01N 67°20' E 014°19'5 9.5
2017-Dec-09 03:31N 67°24' E 014°26'5 8.9
2017-Dec-09 03:00N 67°28' E 014°28'  

Dump ship's entire track history